Time;durP1;ratioP1;P1;durP2;ratioP2;P2;SDS_P1;SDS_P2;PMS_P1;PMS_P2;Temp;Humidity;BMP_temperature;BMP_pressure;BME280_temperature;BME280_humidity;BME280_pressure;Samples;Min_cycle;Max_cycle;Signal;HPM_P1;HPM_P2
2022/10/09 00:00:43;;;;;;;5.13;1.67;;;10.30;94.40;;;;;;5032991;28;20033;-70
2022/10/09 00:03:09;;;;;;;1.88;1.20;;;10.30;94.40;;;;;;5026080;28;20037;-70
2022/10/09 00:05:35;;;;;;;4.00;1.30;;;10.30;94.50;;;;;;5034011;28;20090;-70
2022/10/09 00:08:01;;;;;;;3.15;1.00;;;10.30;94.50;;;;;;5035982;28;20844;-71
2022/10/09 00:10:27;;;;;;;6.97;1.52;;;10.20;94.50;;;;;;5026583;28;20025;-71
2022/10/09 00:12:53;;;;;;;4.80;1.33;;;10.20;94.50;;;;;;5030331;28;20042;-70
2022/10/09 00:15:19;;;;;;;3.10;1.20;;;10.20;94.40;;;;;;5028415;28;20034;-70
2022/10/09 00:17:44;;;;;;;2.25;1.27;;;10.20;94.40;;;;;;5023977;28;20076;-70
2022/10/09 00:20:11;;;;;;;4.28;1.40;;;10.20;94.50;;;;;;5029836;28;20036;-70
2022/10/09 00:22:37;;;;;;;1.50;1.13;;;10.20;94.40;;;;;;5029145;28;20056;-70
2022/10/09 00:25:04;;;;;;;3.85;1.40;;;10.20;94.50;;;;;;5032064;28;20033;-67
2022/10/09 00:27:29;;;;;;;2.97;1.02;;;10.10;94.50;;;;;;5034960;28;20068;-67
2022/10/09 00:29:55;;;;;;;1.65;1.20;;;10.10;94.50;;;;;;5035906;28;20152;-67
2022/10/09 00:32:21;;;;;;;1.75;1.10;;;10.10;94.50;;;;;;5027617;28;20549;-67
2022/10/09 00:34:47;;;;;;;4.85;1.80;;;10.10;94.50;;;;;;5033539;28;20121;-67
2022/10/09 00:37:12;;;;;;;3.58;1.23;;;10.10;94.50;;;;;;5029432;28;20057;-67
2022/10/09 00:39:38;;;;;;;4.10;1.55;;;10.10;94.40;;;;;;5024621;28;20100;-66
2022/10/09 00:42:04;;;;;;;1.95;1.30;;;10.10;94.40;;;;;;5036572;28;20029;-67
2022/10/09 00:44:48;;;;;;;5.82;1.08;;;10.00;94.50;;;;;;5038997;28;20029;-67
2022/10/09 00:47:38;;;;;;;1.67;1.17;;;10.00;94.50;;;;;;5030289;28;20029;-67
2022/10/09 00:50:18;;;;;;;6.80;1.45;;;10.00;94.60;;;;;;5033362;28;20040;-67
2022/10/09 00:52:45;;;;;;;2.88;1.20;;;10.00;94.60;;;;;;5031837;28;20068;-67
2022/10/09 00:55:13;;;;;;;4.70;1.20;;;9.90;94.50;;;;;;5028293;28;20029;-67
2022/10/09 00:57:40;;;;;;;3.42;1.17;;;10.00;94.50;;;;;;5033497;28;20036;-67
2022/10/09 01:00:09;;;;;;;4.43;1.30;;;9.90;94.40;;;;;;5027100;28;20030;-67
2022/10/09 01:02:35;;;;;;;2.72;1.10;;;9.90;94.40;;;;;;5031897;28;20042;-67
2022/10/09 01:05:01;;;;;;;3.65;1.20;;;9.90;94.40;;;;;;5038176;28;20054;-67
2022/10/09 01:07:51;;;;;;;6.78;1.55;;;9.90;94.40;;;;;;5033482;28;20038;-67
2022/10/09 01:10:39;;;;;;;5.05;1.33;;;9.90;94.40;;;;;;5030576;28;20069;-67
2022/10/09 01:13:26;;;;;;;2.78;1.30;;;9.80;94.40;;;;;;5032388;28;20037;-67
2022/10/09 01:16:05;;;;;;;3.83;1.38;;;9.80;94.50;;;;;;5038123;28;20698;-68
2022/10/09 01:19:22;;;;;;;4.05;1.92;;;9.80;94.60;;;;;;5036033;28;20033;-67
2022/10/09 01:22:10;;;;;;;2.08;1.00;;;9.80;94.70;;;;;;5039481;28;20040;-67
2022/10/09 01:24:51;;;;;;;4.38;1.35;;;9.80;94.70;;;;;;5039614;28;20045;-67
2022/10/09 01:27:24;;;;;;;3.75;1.27;;;9.70;95.00;;;;;;5035600;28;20635;-67
2022/10/09 01:29:59;;;;;;;1.33;1.20;;;9.70;94.70;;;;;;5030490;28;20044;-67
2022/10/09 01:32:29;;;;;;;4.75;0.98;;;9.70;94.70;;;;;;5033090;28;20041;-67
2022/10/09 01:34:56;;;;;;;2.75;1.20;;;9.70;94.70;;;;;;5032064;28;20566;-67
2022/10/09 01:37:23;;;;;;;3.03;1.27;;;9.70;94.60;;;;;;5025182;28;20625;-67
2022/10/09 01:39:50;;;;;;;2.80;1.25;;;9.70;94.60;;;;;;5035265;28;20447;-67
2022/10/09 01:42:19;;;;;;;3.00;1.30;;;9.60;94.40;;;;;;5037025;28;20556;-66
2022/10/09 01:44:45;;;;;;;6.63;1.10;;;9.60;94.50;;;;;;5032172;28;20056;-67
2022/10/09 01:47:16;;;;;;;5.15;1.40;;;9.60;94.50;;;;;;5031982;28;20033;-67
2022/10/09 01:50:05;;;;;;;3.97;1.45;;;9.60;94.50;;;;;;5032810;28;20568;-67
2022/10/09 01:52:37;;;;;;;4.43;1.30;;;9.60;94.50;;;;;;5026825;28;20037;-70
2022/10/09 01:55:32;;;;;;;3.72;1.20;;;9.60;94.50;;;;;;5036589;28;20040;-67
2022/10/09 01:58:07;;;;;;;2.38;1.00;;;9.60;94.60;;;;;;5035992;28;20029;-67
2022/10/09 02:00:38;;;;;;;6.55;2.08;;;9.50;94.50;;;;;;5032777;28;20137;-67
2022/10/09 02:03:08;;;;;;;4.82;1.48;;;9.50;94.70;;;;;;5032845;28;20041;-66
2022/10/09 02:05:35;;;;;;;2.67;1.10;;;9.50;94.70;;;;;;5031288;28;20034;-67
2022/10/09 02:08:02;;;;;;;2.65;1.42;;;9.50;94.70;;;;;;5027152;28;20067;-67
2022/10/09 02:10:29;;;;;;;4.82;1.10;;;9.50;94.90;;;;;;5032742;28;20056;-67
2022/10/09 02:12:57;;;;;;;3.38;1.10;;;9.50;94.90;;;;;;5026582;28;20492;-67
2022/10/09 02:15:49;;;;;;;3.28;1.20;;;9.50;95.00;;;;;;5034306;28;20041;-67
2022/10/09 02:18:21;;;;;;;1.42;1.20;;;9.50;95.00;;;;;;5031223;28;20041;-67
2022/10/09 02:20:54;;;;;;;3.75;1.20;;;9.50;95.00;;;;;;5034711;28;20041;-67
2022/10/09 02:23:23;;;;;;;1.10;0.90;;;9.50;95.00;;;;;;5035365;28;20034;-67
2022/10/09 02:25:51;;;;;;;3.70;1.05;;;9.50;94.90;;;;;;5031889;28;20400;-67
2022/10/09 02:28:17;;;;;;;6.07;1.50;;;9.50;94.70;;;;;;5025664;28;20064;-67
2022/10/09 02:31:23;;;;;;;2.58;1.15;;;9.50;94.70;;;;;;5030102;28;20124;-68
2022/10/09 02:33:57;;;;;;;6.85;1.85;;;9.40;94.70;;;;;;5026905;28;20053;-69
2022/10/09 02:36:23;;;;;;;6.57;1.42;;;9.40;94.70;;;;;;5027881;28;20033;-69
2022/10/09 02:38:49;;;;;;;6.70;1.30;;;9.40;94.70;;;;;;5033275;28;20108;-70
2022/10/09 02:41:15;;;;;;;1.13;1.00;;;9.40;94.70;;;;;;5033223;28;20116;-69
2022/10/09 02:43:41;;;;;;;4.40;1.30;;;9.40;95.10;;;;;;5026810;28;20025;-70
2022/10/09 02:46:07;;;;;;;3.83;1.52;;;9.40;94.80;;;;;;5031188;28;20030;-70
2022/10/09 02:48:32;;;;;;;2.80;1.23;;;9.40;94.80;;;;;;5027459;28;20476;-70
2022/10/09 02:50:58;;;;;;;3.38;1.20;;;9.40;94.90;;;;;;5025692;28;20036;-69
2022/10/09 02:53:24;;;;;;;1.95;1.23;;;9.40;94.90;;;;;;5029675;28;20028;-69
2022/10/09 02:55:50;;;;;;;3.55;1.70;;;9.30;94.90;;;;;;5036144;28;20034;-70
2022/10/09 02:58:15;;;;;;;2.80;1.60;;;9.30;95.00;;;;;;5028624;28;20854;-69
2022/10/09 03:00:46;;;;;;;8.40;1.30;;;9.30;95.10;;;;;;5029886;28;20037;-70
2022/10/09 03:03:12;;;;;;;2.92;1.30;;;9.30;95.10;;;;;;5030011;28;20125;-69
2022/10/09 03:05:37;;;;;;;4.38;1.15;;;9.30;95.10;;;;;;5026276;28;20025;-70
2022/10/09 03:08:03;;;;;;;2.78;1.05;;;9.30;95.10;;;;;;5031706;28;20043;-69
2022/10/09 03:10:29;;;;;;;2.55;1.20;;;9.30;95.20;;;;;;5026780;28;20755;-69
2022/10/09 03:12:55;;;;;;;2.25;1.13;;;9.30;95.20;;;;;;5031563;28;20095;-69
2022/10/09 03:15:20;;;;;;;2.42;1.23;;;9.20;95.20;;;;;;5033928;28;20025;-70
2022/10/09 03:17:46;;;;;;;3.83;1.25;;;9.20;95.20;;;;;;5034270;28;20772;-69
2022/10/09 03:20:12;;;;;;;2.05;0.93;;;9.20;95.20;;;;;;5027802;28;20061;-70
2022/10/09 03:22:37;;;;;;;1.95;1.40;;;9.20;95.10;;;;;;5030652;28;20071;-69
2022/10/09 03:25:03;;;;;;;3.83;1.13;;;9.20;95.10;;;;;;5029417;28;20075;-70
2022/10/09 03:27:29;;;;;;;5.07;1.88;;;9.20;95.00;;;;;;5024631;28;20559;-67
2022/10/09 03:29:57;;;;;;;2.38;1.30;;;9.20;94.90;;;;;;5032520;28;20037;-67
2022/10/09 03:32:23;;;;;;;3.38;1.20;;;9.20;94.90;;;;;;5036077;28;20204;-67
2022/10/09 03:34:48;;;;;;;2.50;1.15;;;9.10;94.80;;;;;;5032451;28;20034;-67
2022/10/09 03:37:14;;;;;;;5.57;1.40;;;9.10;94.60;;;;;;5037789;28;21007;-67
2022/10/09 03:39:40;;;;;;;4.40;1.30;;;9.10;94.70;;;;;;5033088;28;20044;-67
2022/10/09 03:42:05;;;;;;;6.03;1.67;;;9.00;94.90;;;;;;5026999;28;20021;-67
2022/10/09 03:44:32;;;;;;;3.78;1.73;;;9.00;94.60;;;;;;5030640;28;20030;-69
2022/10/09 03:46:57;;;;;;;4.43;1.88;;;9.00;94.60;;;;;;5028234;28;20818;-67
2022/10/09 03:49:23;;;;;;;4.07;1.60;;;9.00;94.60;;;;;;5027521;28;20033;-67
2022/10/09 03:51:49;;;;;;;4.70;1.42;;;9.00;94.80;;;;;;5034686;28;20921;-66
2022/10/09 03:54:15;;;;;;;3.53;1.50;;;9.00;94.80;;;;;;5035411;28;20041;-67
2022/10/09 03:56:40;;;;;;;4.63;1.75;;;8.90;94.80;;;;;;5029921;28;20078;-66
2022/10/09 03:59:08;;;;;;;7.30;2.15;;;9.00;94.80;;;;;;5035310;28;20028;-67
2022/10/09 04:01:34;;;;;;;5.00;1.38;;;8.90;94.80;;;;;;5032557;28;20037;-67
2022/10/09 04:04:00;;;;;;;4.07;1.40;;;8.90;94.80;;;;;;5027716;28;20401;-67
2022/10/09 04:06:26;;;;;;;3.25;1.27;;;8.90;94.80;;;;;;5035917;28;20128;-67
2022/10/09 04:08:52;;;;;;;2.47;1.45;;;8.90;94.90;;;;;;5030262;28;20773;-67
2022/10/09 04:11:18;;;;;;;2.15;1.30;;;8.90;95.00;;;;;;5037409;28;20488;-67
2022/10/09 04:13:44;;;;;;;6.60;1.52;;;8.90;95.00;;;;;;5036340;28;20083;-67
2022/10/09 04:16:11;;;;;;;3.90;1.75;;;8.90;95.00;;;;;;5035355;28;20045;-67
2022/10/09 04:18:38;;;;;;;4.82;1.73;;;8.90;94.80;;;;;;5028596;28;20044;-67
2022/10/09 04:21:05;;;;;;;3.65;1.40;;;8.90;94.80;;;;;;5034980;28;20460;-67
2022/10/09 04:23:30;;;;;;;4.38;1.65;;;8.90;94.80;;;;;;5026226;28;20036;-67
2022/10/09 04:25:58;;;;;;;3.88;1.80;;;8.90;94.90;;;;;;5029226;28;20416;-69
2022/10/09 04:28:25;;;;;;;7.05;1.70;;;8.90;94.90;;;;;;5034493;28;20033;-70
2022/10/09 04:30:51;;;;;;;2.78;1.42;;;8.80;95.00;;;;;;5031139;28;20045;-69
2022/10/09 04:33:17;;;;;;;4.50;1.50;;;8.90;95.00;;;;;;5034250;28;20029;-69
2022/10/09 04:35:45;;;;;;;4.30;1.58;;;8.80;95.00;;;;;;5030888;28;20191;-70
2022/10/09 04:38:11;;;;;;;2.30;1.50;;;8.80;95.00;;;;;;5030140;28;20112;-70
2022/10/09 04:40:36;;;;;;;4.45;1.48;;;8.80;95.00;;;;;;5029023;28;20040;-69
2022/10/09 04:43:03;;;;;;;3.92;1.75;;;8.80;94.90;;;;;;5030297;28;20033;-69
2022/10/09 04:45:28;;;;;;;7.00;1.60;;;8.80;94.90;;;;;;5032055;28;20029;-70
2022/10/09 04:47:54;;;;;;;5.57;1.40;;;8.80;95.00;;;;;;5032952;28;20044;-70
2022/10/09 04:50:20;;;;;;;5.82;1.35;;;8.80;95.00;;;;;;5031855;28;20579;-70
2022/10/09 04:52:56;;;;;;;;;;;8.80;95.10;;;;;;5029976;28;20020;-70
2022/10/09 04:55:21;;;;;;;5.60;1.40;;;8.80;95.10;;;;;;5027795;28;19943;-67
2022/10/09 04:57:47;;;;;;;3.50;1.38;;;8.80;95.10;;;;;;5028594;28;20037;-67
2022/10/09 05:00:13;;;;;;;4.95;1.48;;;8.80;95.10;;;;;;5033843;28;20034;-67
2022/10/09 05:02:39;;;;;;;4.65;1.48;;;8.70;95.00;;;;;;5038107;28;20040;-67
2022/10/09 05:05:05;;;;;;;3.90;1.60;;;8.70;95.10;;;;;;5027070;28;20880;-67
2022/10/09 05:07:31;;;;;;;2.58;1.40;;;8.70;95.10;;;;;;5031775;28;20048;-67
2022/10/09 05:09:57;;;;;;;2.22;1.20;;;8.70;95.10;;;;;;5031066;28;20028;-70
2022/10/09 05:12:22;;;;;;;5.18;2.00;;;8.70;95.10;;;;;;5029576;28;20518;-70
2022/10/09 05:14:48;;;;;;;4.15;1.33;;;8.70;95.20;;;;;;5030333;28;20052;-69
2022/10/09 05:17:14;;;;;;;4.78;1.70;;;8.70;95.20;;;;;;5026797;28;20039;-70
2022/10/09 05:19:39;;;;;;;3.03;1.50;;;8.70;95.30;;;;;;5029457;28;20032;-67
2022/10/09 05:22:05;;;;;;;4.15;1.35;;;8.70;95.30;;;;;;5032714;28;20120;-70
2022/10/09 05:24:31;;;;;;;8.13;1.80;;;8.70;95.30;;;;;;5029466;28;20136;-70
2022/10/09 05:26:57;;;;;;;2.97;1.30;;;8.70;95.30;;;;;;5029794;28;20025;-70
2022/10/09 05:29:22;;;;;;;5.72;1.33;;;8.70;95.30;;;;;;5033179;28;20123;-70
2022/10/09 05:31:48;;;;;;;3.83;1.50;;;8.70;95.30;;;;;;5030747;28;20477;-70
2022/10/09 05:34:14;;;;;;;3.40;1.40;;;8.70;95.30;;;;;;5032941;28;20054;-67
2022/10/09 05:36:39;;;;;;;2.65;1.58;;;8.70;95.30;;;;;;5028793;28;20029;-67
2022/10/09 05:39:05;;;;;;;4.00;1.55;;;8.70;95.30;;;;;;5025790;28;20017;-67
2022/10/09 05:41:31;;;;;;;4.20;1.70;;;8.70;95.40;;;;;;5031591;28;20083;-67
2022/10/09 05:44:01;;;;;;;5.90;1.50;;;8.80;95.40;;;;;;5029877;28;20021;-70
2022/10/09 05:46:28;;;;;;;4.05;1.42;;;8.70;95.30;;;;;;5030810;28;20041;-69
2022/10/09 05:49:05;;;;;;;3.55;1.20;;;8.80;95.40;;;;;;5033512;28;20041;-68
2022/10/09 05:51:34;;;;;;;6.80;1.80;;;8.80;95.30;;;;;;5036448;28;20072;-68
2022/10/09 05:54:00;;;;;;;2.38;1.30;;;8.80;95.30;;;;;;5025704;28;20887;-71
2022/10/09 05:56:29;;;;;;;4.55;1.40;;;8.80;95.30;;;;;;5031744;28;20348;-68
2022/10/09 05:58:59;;;;;;;3.50;1.27;;;8.80;95.40;;;;;;5024442;28;20051;-68
2022/10/09 06:01:30;;;;;;;4.88;2.28;;;8.80;95.50;;;;;;5028994;28;20448;-68
2022/10/09 06:03:57;;;;;;;5.85;1.50;;;8.80;95.20;;;;;;5032735;28;20037;-68
2022/10/09 06:06:25;;;;;;;1.77;1.40;;;8.80;94.90;;;;;;5026087;28;20029;-67
2022/10/09 06:08:51;;;;;;;5.75;1.77;;;8.80;94.50;;;;;;5032231;28;20120;-69
2022/10/09 06:11:23;;;;;;;5.57;1.13;;;8.80;93.80;;;;;;5035114;28;20502;-68
2022/10/09 06:13:50;;;;;;;1.75;1.20;;;8.70;93.80;;;;;;5027617;28;20128;-69
2022/10/09 06:16:16;;;;;;;3.35;1.17;;;8.60;94.00;;;;;;5028795;28;20025;-68
2022/10/09 06:18:45;;;;;;;4.32;1.70;;;8.60;94.20;;;;;;5025900;28;20048;-68
2022/10/09 06:21:12;;;;;;;3.85;1.30;;;8.60;94.40;;;;;;5033947;28;20844;-69
2022/10/09 06:23:38;;;;;;;1.75;1.27;;;8.60;94.70;;;;;;5033813;28;20112;-68
2022/10/09 06:26:06;;;;;;;4.82;1.40;;;8.70;95.00;;;;;;5032929;28;20389;-69
2022/10/09 06:28:33;;;;;;;2.13;1.23;;;8.70;95.20;;;;;;5036140;28;20076;-69
2022/10/09 06:31:05;;;;;;;1.80;1.40;;;8.80;95.30;;;;;;5029154;28;20033;-69
2022/10/09 06:33:32;;;;;;;2.85;1.52;;;8.80;95.50;;;;;;5031624;28;20037;-68
2022/10/09 06:36:03;;;;;;;3.55;1.50;;;8.90;95.60;;;;;;5030561;28;20112;-68
2022/10/09 06:38:29;;;;;;;3.53;1.60;;;9.00;95.70;;;;;;5030040;28;20654;-69
2022/10/09 06:40:59;;;;;;;2.50;1.40;;;9.00;95.80;;;;;;5028732;28;20025;-69
2022/10/09 06:43:25;;;;;;;3.45;1.65;;;9.10;95.80;;;;;;5033135;28;20477;-68
2022/10/09 06:45:51;;;;;;;3.83;2.10;;;9.20;95.90;;;;;;5025839;28;20040;-68
2022/10/09 06:48:16;;;;;;;1.48;1.38;;;9.30;96.00;;;;;;5028500;28;20033;-69
2022/10/09 06:50:42;;;;;;;7.25;2.25;;;9.40;96.00;;;;;;5027567;28;20033;-69
2022/10/09 06:53:08;;;;;;;3.45;1.98;;;9.50;96.20;;;;;;5035316;28;20078;-69
2022/10/09 06:55:34;;;;;;;2.78;1.60;;;9.60;96.20;;;;;;5028829;28;20041;-69
2022/10/09 06:57:59;;;;;;;4.72;1.58;;;9.60;96.20;;;;;;5022825;28;20033;-69
2022/10/09 07:00:26;;;;;;;3.70;1.80;;;9.70;96.30;;;;;;5028957;28;20033;-68
2022/10/09 07:02:52;;;;;;;3.20;1.95;;;9.80;96.30;;;;;;5030384;28;20598;-68
2022/10/09 07:05:17;;;;;;;4.85;1.90;;;9.90;96.40;;;;;;5029901;28;20033;-68
2022/10/09 07:07:43;;;;;;;8.85;2.40;;;10.00;96.50;;;;;;5032157;28;20064;-69
2022/10/09 07:10:09;;;;;;;5.28;2.15;;;10.10;96.40;;;;;;5025148;28;20040;-68
2022/10/09 07:12:35;;;;;;;3.15;2.10;;;10.20;96.40;;;;;;5024467;28;20037;-69
2022/10/09 07:15:03;;;;;;;3.83;1.80;;;10.30;96.20;;;;;;5031229;28;20485;-70
2022/10/09 07:17:29;;;;;;;2.97;1.83;;;10.40;96.00;;;;;;5026446;28;20649;-69
2022/10/09 07:19:54;;;;;;;2.65;1.88;;;10.40;95.90;;;;;;5037488;28;20094;-69
2022/10/09 07:22:20;;;;;;;7.32;1.63;;;10.50;95.90;;;;;;5032392;28;20021;-69
2022/10/09 07:24:46;;;;;;;3.60;1.75;;;10.50;95.90;;;;;;5025417;28;20063;-70
2022/10/09 07:27:12;;;;;;;4.50;1.98;;;10.60;95.90;;;;;;5021908;28;20037;-68
2022/10/09 07:29:38;;;;;;;6.40;1.50;;;10.60;95.90;;;;;;5026703;28;20037;-69
2022/10/09 07:32:03;;;;;;;7.90;2.05;;;10.70;95.90;;;;;;5033562;28;20029;-66
2022/10/09 07:34:29;;;;;;;4.97;1.90;;;10.80;96.00;;;;;;5025288;28;20548;-66
2022/10/09 07:36:55;;;;;;;4.20;1.65;;;10.90;95.80;;;;;;5037538;28;20029;-62
2022/10/09 07:39:21;;;;;;;7.00;2.05;;;10.90;95.80;;;;;;5032083;28;20481;-66
2022/10/09 07:41:50;;;;;;;4.05;1.52;;;11.00;95.60;;;;;;5038120;28;20041;-67
2022/10/09 07:44:16;;;;;;;5.95;2.03;;;11.20;95.50;;;;;;5030279;28;20516;-67
2022/10/09 07:46:42;;;;;;;8.80;2.83;;;11.20;95.30;;;;;;5030973;28;20038;-67
2022/10/09 07:49:08;;;;;;;3.90;2.10;;;11.20;95.20;;;;;;5029502;28;20135;-67
2022/10/09 07:51:34;;;;;;;6.78;2.10;;;11.30;95.30;;;;;;5037883;28;20120;-67
2022/10/09 07:54:01;;;;;;;5.65;1.98;;;11.40;95.30;;;;;;5031069;28;20037;-66
2022/10/09 07:56:29;;;;;;;11.02;1.40;;;11.40;95.10;;;;;;5034893;28;20116;-67
2022/10/09 07:59:00;;;;;;;9.57;2.20;;;11.50;95.20;;;;;;5034546;28;20469;-66
2022/10/09 08:01:27;;;;;;;7.70;2.00;;;11.50;95.20;;;;;;5031524;28;20393;-66
2022/10/09 08:03:54;;;;;;;7.68;2.08;;;11.60;95.00;;;;;;5031689;28;20116;-67
2022/10/09 08:06:20;;;;;;;8.10;2.15;;;11.70;94.70;;;;;;5034356;28;20039;-65
2022/10/09 08:08:53;;;;;;;2.38;1.42;;;11.80;94.70;;;;;;5036274;28;20053;-68
2022/10/09 08:11:20;;;;;;;7.80;1.90;;;11.90;94.50;;;;;;5026442;28;20056;-66
2022/10/09 08:13:47;;;;;;;8.57;2.08;;;11.90;94.40;;;;;;5030314;28;20111;-67
2022/10/09 08:16:14;;;;;;;5.40;2.17;;;12.10;94.30;;;;;;5032551;28;20491;-67
2022/10/09 08:18:39;;;;;;;6.22;2.00;;;12.10;93.60;;;;;;5032737;28;20034;-66
2022/10/09 08:21:09;;;;;;;7.88;1.95;;;12.20;93.80;;;;;;5033814;28;20029;-69
2022/10/09 08:23:36;;;;;;;4.90;1.90;;;12.30;93.80;;;;;;5025697;28;20041;-69
2022/10/09 08:26:02;;;;;;;7.68;1.90;;;12.40;93.60;;;;;;5030682;28;20021;-70
2022/10/09 08:28:28;;;;;;;6.45;2.20;;;12.50;93.40;;;;;;5030371;28;20064;-70
2022/10/09 08:30:53;;;;;;;6.75;1.90;;;12.60;93.30;;;;;;5029854;28;20072;-70
2022/10/09 08:33:22;;;;;;;4.20;1.45;;;12.60;93.20;;;;;;5031859;28;20135;-70
2022/10/09 08:35:52;;;;;;;13.60;2.75;;;12.70;93.10;;;;;;5032799;28;20030;-70
2022/10/09 08:38:18;;;;;;;9.10;2.65;;;12.80;93.00;;;;;;5030436;28;20508;-70
2022/10/09 08:41:17;;;;;;;4.50;1.85;;;12.90;92.80;;;;;;5034287;28;20405;-70
2022/10/09 08:43:48;;;;;;;7.13;1.50;;;13.00;92.60;;;;;;5028433;28;20044;-70
2022/10/09 08:46:46;;;;;;;7.22;1.60;;;13.10;92.30;;;;;;5030642;28;20029;-70
2022/10/09 08:49:27;;;;;;;7.65;2.28;;;13.20;91.90;;;;;;5028000;28;20139;-70
2022/10/09 08:51:55;;;;;;;8.25;2.40;;;13.30;91.80;;;;;;5025893;28;20056;-71
2022/10/09 08:54:33;;;;;;;6.68;1.95;;;13.30;91.80;;;;;;5033189;28;20029;-70
2022/10/09 08:57:03;;;;;;;15.55;1.88;;;13.50;91.80;;;;;;5033444;28;20456;-70
2022/10/09 08:59:29;;;;;;;5.68;1.70;;;13.70;92.00;;;;;;5029874;28;20037;-71
2022/10/09 09:02:13;;;;;;;12.55;2.30;;;13.90;91.90;;;;;;5030194;28;20044;-71
2022/10/09 09:04:57;;;;;;;8.13;2.10;;;14.50;90.90;;;;;;5029586;28;20033;-71
2022/10/09 09:07:28;;;;;;;4.68;1.38;;;15.20;87.50;;;;;;5026792;28;20029;-73
2022/10/09 09:10:04;;;;;;;7.63;2.28;;;15.40;86.60;;;;;;5032730;28;20833;-69
2022/10/09 09:13:00;;;;;;;6.65;1.73;;;15.30;86.00;;;;;;5034192;28;20183;-65
2022/10/09 09:15:40;;;;;;;7.97;2.00;;;15.20;86.40;;;;;;5032089;28;20040;-65
2022/10/09 09:18:45;;;;;;;5.15;1.95;;;15.10;88.00;;;;;;5028865;28;20025;-64
2022/10/09 09:21:43;;;;;;;7.82;3.95;;;15.10;88.40;;;;;;5030610;28;20460;-65
2022/10/09 09:24:16;;;;;;;8.73;2.60;;;15.10;88.70;;;;;;5027266;28;20093;-65
2022/10/09 09:26:44;;;;;;;9.85;1.88;;;15.20;88.50;;;;;;5028716;28;20033;-64
2022/10/09 09:29:14;;;;;;;14.50;2.30;;;15.30;87.40;;;;;;5026939;28;20036;-65
2022/10/09 09:31:42;;;;;;;9.45;2.08;;;15.40;87.00;;;;;;5031027;28;20033;-68
2022/10/09 09:34:24;;;;;;;8.13;2.05;;;15.40;86.60;;;;;;5027299;28;20025;-67
2022/10/09 09:36:59;;;;;;;6.95;1.95;;;15.50;86.70;;;;;;5034363;28;20043;-65
2022/10/09 09:39:31;;;;;;;9.75;1.77;;;15.50;86.20;;;;;;5030141;28;20038;-64
2022/10/09 09:42:08;;;;;;;7.13;1.63;;;15.70;85.80;;;;;;5028828;28;20037;-65
2022/10/09 09:44:42;;;;;;;8.98;1.75;;;15.90;85.40;;;;;;5028461;28;20037;-68
2022/10/09 09:47:23;;;;;;;6.60;1.40;;;16.10;84.20;;;;;;5029464;28;20119;-69
2022/10/09 09:49:58;;;;;;;9.98;2.45;;;16.40;82.80;;;;;;5024328;28;20029;-70
2022/10/09 09:52:28;;;;;;;6.03;1.87;;;16.70;81.30;;;;;;5028693;28;20029;-66
2022/10/09 09:54:57;;;;;;;7.32;1.80;;;16.90;80.60;;;;;;5029504;28;20292;-69
2022/10/09 09:57:30;;;;;;;5.38;1.98;;;17.10;79.30;;;;;;5029657;28;20025;-65
2022/10/09 10:00:24;;;;;;;11.68;1.65;;;17.10;80.00;;;;;;5027953;28;20024;-66
2022/10/09 10:03:01;;;;;;;7.20;1.67;;;17.10;79.90;;;;;;5028599;28;20040;-66
2022/10/09 10:05:32;;;;;;;8.73;1.45;;;17.50;78.00;;;;;;5025883;28;20489;-71
2022/10/09 10:07:58;;;;;;;10.77;1.48;;;18.30;75.90;;;;;;5029929;28;20021;-67
2022/10/09 10:10:26;;;;;;;9.30;1.35;;;19.70;70.00;;;;;;5030381;28;20459;-68
2022/10/09 10:12:55;;;;;;;8.15;1.50;;;21.30;64.80;;;;;;5032251;28;20515;-68
2022/10/09 10:15:26;;;;;;;10.90;2.00;;;22.30;60.50;;;;;;5028847;28;20041;-68
2022/10/09 10:18:06;;;;;;;9.32;2.03;;;23.20;57.30;;;;;;5029953;28;20584;-67
2022/10/09 10:20:42;;;;;;;11.35;2.05;;;23.60;55.70;;;;;;5031815;28;20059;-69
2022/10/09 10:23:33;;;;;;;7.90;1.45;;;23.30;55.70;;;;;;5028389;28;20036;-68
2022/10/09 10:26:04;;;;;;;10.40;1.63;;;22.80;56.20;;;;;;5027617;28;20049;-69
2022/10/09 10:28:36;;;;;;;8.48;1.48;;;22.50;56.90;;;;;;5036558;28;20029;-71
2022/10/09 10:31:05;;;;;;;6.93;1.35;;;22.00;56.10;;;;;;5025874;28;20444;-72
2022/10/09 10:33:32;;;;;;;7.80;1.27;;;22.30;55.60;;;;;;5032311;28;20490;-67
2022/10/09 10:35:58;;;;;;;7.00;1.25;;;23.40;54.20;;;;;;5031062;28;20028;-68
2022/10/09 10:38:34;;;;;;;6.97;1.00;;;24.70;49.30;;;;;;5029791;28;20037;-68
2022/10/09 10:41:04;;;;;;;;;;;26.00;47.10;;;;;;5024799;28;20048;-68
2022/10/09 10:43:43;;;;;;;8.40;1.35;;;26.60;43.30;;;;;;5029026;28;19913;-68
2022/10/09 10:46:22;;;;;;;4.82;1.30;;;27.00;43.30;;;;;;5030344;28;20021;-66
2022/10/09 10:48:50;;;;;;;6.10;1.23;;;26.00;44.70;;;;;;5029803;28;20025;-72
2022/10/09 10:51:49;;;;;;;5.70;1.50;;;25.50;46.40;;;;;;5027661;28;20033;-74
2022/10/09 10:54:24;;;;;;;8.75;1.50;;;25.30;47.00;;;;;;5029366;28;20029;-71
2022/10/09 10:57:08;;;;;;;4.95;1.35;;;25.40;46.10;;;;;;5025490;28;20084;-71
2022/10/09 10:59:45;;;;;;;5.68;1.30;;;25.30;46.50;;;;;;5012585;28;20511;-71
2022/10/09 11:02:49;;;;;;;5.72;1.58;;;24.00;49.10;;;;;;5025905;28;20720;-72
2022/10/09 11:05:45;;;;;;;4.97;1.25;;;22.00;52.80;;;;;;5030814;28;20124;-82
2022/10/09 11:08:32;;;;;;;8.45;1.40;;;20.80;56.50;;;;;;5023340;28;20545;-73
2022/10/09 11:11:36;;;;;;;5.68;1.30;;;19.80;59.20;;;;;;5031527;28;20032;-72
2022/10/09 11:14:07;;;;;;;6.43;1.88;;;19.30;62.00;;;;;;5025264;28;20043;-72
2022/10/09 11:16:46;;;;;;;6.22;1.13;;;19.00;62.10;;;;;;5022127;28;20052;-73
2022/10/09 11:19:43;;;;;;;4.18;0.90;;;18.80;63.40;;;;;;5026895;28;20030;-71
2022/10/09 11:23:04;;;;;;;13.13;1.70;;;18.80;64.10;;;;;;5032105;28;20059;-73
2022/10/09 11:25:41;;;;;;;13.38;1.88;;;18.70;63.70;;;;;;5023265;28;20031;-72
2022/10/09 11:28:27;;;;;;;9.65;1.65;;;18.70;64.40;;;;;;5025599;28;20047;-69
2022/10/09 11:31:10;;;;;;;8.07;1.43;;;18.60;64.70;;;;;;5026973;28;20661;-72
2022/10/09 11:33:49;;;;;;;6.90;1.40;;;18.50;63.60;;;;;;5028480;28;20824;-72
2022/10/09 11:36:33;;;;;;;7.63;1.20;;;18.30;64.40;;;;;;5029576;28;20103;-70
2022/10/09 11:39:04;;;;;;;4.53;1.08;;;18.20;63.80;;;;;;5023206;28;20428;-70
2022/10/09 11:41:30;;;;;;;7.70;1.40;;;18.20;65.00;;;;;;5033769;28;20075;-73
2022/10/09 11:44:04;;;;;;;5.75;0.70;;;18.10;63.60;;;;;;5031807;28;20024;-71
2022/10/09 11:46:48;;;;;;;8.50;1.20;;;18.00;61.60;;;;;;5027438;28;20089;-73
2022/10/09 11:49:56;;;;;;;6.65;1.05;;;17.90;65.00;;;;;;5025135;28;20564;-74
2022/10/09 11:52:40;;;;;;;8.23;1.10;;;17.90;64.60;;;;;;5029413;28;20033;-73
2022/10/09 11:55:28;;;;;;;3.92;0.70;;;18.00;62.80;;;;;;5025270;28;20039;-74
2022/10/09 11:57:54;;;;;;;7.00;1.13;;;17.90;62.40;;;;;;5028406;28;20056;-73
2022/10/09 12:00:31;;;;;;;11.05;1.60;;;17.80;64.50;;;;;;5027777;28;20825;-72
2022/10/09 12:03:00;;;;;;;5.57;0.93;;;17.80;63.70;;;;;;5030968;28;20036;-72
2022/10/09 12:05:40;;;;;;;10.55;1.73;;;17.90;62.80;;;;;;5028888;28;20119;-71
2022/10/09 12:08:42;;;;;;;5.80;0.93;;;17.90;63.10;;;;;;5029548;28;20025;-73
2022/10/09 12:11:17;;;;;;;6.22;0.90;;;17.90;62.90;;;;;;5032185;28;20328;-73
2022/10/09 12:13:58;;;;;;;4.25;1.05;;;18.00;65.60;;;;;;5027823;28;20765;-74
2022/10/09 12:16:44;;;;;;;4.68;0.73;;;18.10;63.20;;;;;;5029921;28;20033;-73
2022/10/09 12:19:28;;;;;;;7.22;1.45;;;18.10;59.80;;;;;;5028802;28;20560;-73
2022/10/09 12:22:13;;;;;;;6.47;1.13;;;18.00;61.50;;;;;;5034354;28;20060;-70
2022/10/09 12:24:43;;;;;;;5.80;0.98;;;18.00;61.60;;;;;;5029924;28;20084;-73
2022/10/09 12:27:20;;;;;;;6.85;2.05;;;17.90;61.30;;;;;;5029881;28;20046;-73
2022/10/09 12:29:53;;;;;;;9.90;1.70;;;17.90;62.00;;;;;;5032656;28;20037;-67
2022/10/09 12:32:48;;;;;;;12.65;1.95;;;18.00;61.60;;;;;;5028644;28;20089;-76
2022/10/09 12:35:30;;;;;;;7.18;1.80;;;18.10;61.20;;;;;;5029787;28;20037;-75
2022/10/09 12:37:56;;;;;;;2.28;1.30;;;18.10;61.60;;;;;;5035566;28;20619;-76
2022/10/09 12:40:31;;;;;;;3.53;0.75;;;18.20;61.10;;;;;;5030001;28;20033;-77
2022/10/09 12:42:59;;;;;;;7.43;0.90;;;18.50;59.50;;;;;;5030886;28;20033;-72
2022/10/09 12:45:29;;;;;;;2.70;0.95;;;18.60;59.50;;;;;;5022108;28;20037;-81
2022/10/09 12:47:57;;;;;;;3.38;1.00;;;18.70;59.70;;;;;;5042814;28;20041;-81
2022/10/09 12:50:31;;;;;;;4.25;1.33;;;18.70;58.70;;;;;;5038024;28;20149;-77
2022/10/09 12:53:00;;;;;;;6.57;1.08;;;18.70;59.10;;;;;;5034733;28;20110;-76
2022/10/09 12:55:27;;;;;;;6.95;1.23;;;18.70;59.60;;;;;;5037487;28;20036;-80
2022/10/09 12:57:57;;;;;;;6.82;1.52;;;18.70;58.70;;;;;;5033983;28;20604;-76
2022/10/09 13:00:23;;;;;;;3.53;0.90;;;18.70;59.30;;;;;;5031434;28;20401;-80
2022/10/09 13:02:49;;;;;;;5.88;1.15;;;18.70;59.30;;;;;;5036111;28;20038;-77
2022/10/09 13:05:14;;;;;;;4.03;0.88;;;18.60;58.90;;;;;;5030408;28;20098;-74
2022/10/09 13:07:41;;;;;;;7.03;1.20;;;18.60;59.60;;;;;;5032482;28;20047;-74
2022/10/09 13:10:16;;;;;;;4.28;1.42;;;18.60;60.60;;;;;;5024745;28;20284;-78
2022/10/09 13:12:53;;;;;;;6.68;1.10;;;18.60;60.90;;;;;;5028175;28;20032;-76
2022/10/09 13:15:35;;;;;;;5.07;2.03;;;18.60;61.20;;;;;;5031360;28;20035;-73